createdAt,value
2016-09-24T00:02:03.655Z,45.5
2016-09-24T00:07:04.040Z,45.5
2016-09-24T00:12:04.374Z,45.3
2016-09-24T00:17:04.287Z,45.4
2016-09-24T00:22:04.371Z,45.4
2016-09-24T00:27:04.324Z,45.4
2016-09-24T00:32:04.368Z,45.3
2016-09-24T00:37:03.687Z,45.3
2016-09-24T00:42:03.667Z,45.4
2016-09-24T00:47:03.612Z,45.3
2016-09-24T00:52:04.163Z,45.4
2016-09-24T00:57:03.873Z,45.4
2016-09-24T01:02:03.799Z,45.2
2016-09-24T01:07:03.541Z,45.4
2016-09-24T01:12:03.956Z,45.4
2016-09-24T01:17:04.446Z,45.3
2016-09-24T01:22:03.972Z,45.3
2016-09-24T01:27:04.311Z,45.1
2016-09-24T01:32:03.623Z,45.2
2016-09-24T01:37:03.942Z,45.1
2016-09-24T01:42:03.905Z,45.1
2016-09-24T01:47:03.423Z,45.0
2016-09-24T01:52:03.903Z,45.0
2016-09-24T01:57:04.263Z,45.0
2016-09-24T02:02:03.842Z,45.1
2016-09-24T02:07:04.191Z,45.3
2016-09-24T02:12:04.145Z,45.1
2016-09-24T02:17:03.419Z,45.1
2016-09-24T02:22:04.032Z,45.0
2016-09-24T02:27:03.432Z,45.0
2016-09-24T02:32:04.026Z,45.0
2016-09-24T02:37:03.691Z,45.0
2016-09-24T02:42:03.962Z,45.0
2016-09-24T02:47:04.297Z,45.0
2016-09-24T02:52:03.698Z,45.0
2016-09-24T02:57:03.860Z,44.9
2016-09-24T03:02:04.283Z,45.1
2016-09-24T03:07:03.682Z,44.9
2016-09-24T03:12:03.907Z,45.1
2016-09-24T03:17:04.329Z,44.9
2016-09-24T03:22:03.669Z,44.9
2016-09-24T03:27:03.923Z,44.9
2016-09-24T03:32:04.080Z,44.9
2016-09-24T03:37:04.332Z,44.8
2016-09-24T03:42:03.720Z,44.8
2016-09-24T03:47:03.928Z,44.8
2016-09-24T03:52:04.034Z,44.9
2016-09-24T03:57:04.168Z,44.8
2016-09-24T04:02:03.706Z,44.8
2016-09-24T04:07:04.056Z,44.8
2016-09-24T04:12:04.133Z,44.8
2016-09-24T04:17:04.485Z,44.7
2016-09-24T04:22:03.850Z,44.6
2016-09-24T04:27:04.038Z,44.7
2016-09-24T04:32:04.077Z,44.6
2016-09-24T04:37:03.722Z,44.6
2016-09-24T04:42:04.328Z,44.5
2016-09-24T04:47:18.261Z,44.6
2016-09-24T04:52:03.445Z,44.6
2016-09-24T04:57:03.543Z,44.6
2016-09-24T05:02:28.580Z,44.8
2016-09-24T05:07:03.582Z,44.6
2016-09-24T05:12:03.616Z,44.6
2016-09-24T05:17:33.448Z,44.8
2016-09-24T05:22:04.068Z,44.8
2016-09-24T05:27:03.979Z,44.7
2016-09-24T05:32:26.656Z,44.7
2016-09-24T05:37:04.208Z,44.6
2016-09-24T05:42:03.479Z,44.7
2016-09-24T05:47:34.305Z,44.6
2016-09-24T05:52:03.943Z,44.5
2016-09-24T05:57:03.849Z,44.5
2016-09-24T06:02:30.736Z,44.4
2016-09-24T06:07:03.612Z,44.5
2016-09-24T06:12:03.683Z,44.1
2016-09-24T06:17:36.868Z,44.0
2016-09-24T06:22:03.989Z,44.0
2016-09-24T06:27:04.018Z,44.0
2016-09-24T06:32:31.608Z,44.0
2016-09-24T06:37:03.937Z,43.9
2016-09-24T06:42:03.837Z,43.6
2016-09-24T06:47:36.986Z,43.5
2016-09-24T06:52:03.744Z,43.5
2016-09-24T06:57:03.540Z,43.5
2016-09-24T07:02:31.709Z,43.4
2016-09-24T07:07:04.240Z,43.4
2016-09-24T07:12:04.243Z,43.4
2016-09-24T07:17:32.436Z,43.4
2016-09-24T07:22:03.743Z,43.3
2016-09-24T07:27:04.029Z,43.3
2016-09-24T07:32:31.364Z,43.3
2016-09-24T07:37:03.947Z,43.4
2016-09-24T07:42:04.269Z,43.4
2016-09-24T07:47:35.677Z,43.6
2016-09-24T07:52:04.358Z,43.5
2016-09-24T07:57:03.801Z,43.6
2016-09-24T08:02:31.694Z,43.6
2016-09-24T08:07:03.964Z,43.7
2016-09-24T08:12:03.931Z,43.7
2016-09-24T08:17:37.223Z,43.9
2016-09-24T08:22:04.070Z,44.0
2016-09-24T08:27:03.978Z,44.0
2016-09-24T08:32:44.112Z,44.1
2016-09-24T08:37:04.357Z,44.3
2016-09-24T08:42:04.175Z,44.3
2016-09-24T08:47:32.566Z,44.3
2016-09-24T08:52:04.319Z,44.6
2016-09-24T08:57:04.347Z,44.6
2016-09-24T09:02:36.842Z,44.9
2016-09-24T09:07:03.571Z,44.9
2016-09-24T09:12:04.244Z,45.0
2016-09-24T09:17:32.464Z,45.2
2016-09-24T09:22:04.075Z,45.4
2016-09-24T09:27:04.326Z,45.4
2016-09-24T09:37:04.316Z,45.6
2016-09-24T09:42:03.908Z,46.0
2016-09-24T09:47:40.666Z,45.9
2016-09-24T09:52:03.644Z,46.0
2016-09-24T09:57:03.640Z,46.1
2016-09-24T10:02:31.479Z,46.5
2016-09-24T10:07:03.669Z,46.4
2016-09-24T10:12:04.176Z,46.6
2016-09-24T10:17:37.213Z,46.6
2016-09-24T10:22:03.708Z,46.7
2016-09-24T10:27:03.662Z,46.7
2016-09-24T10:32:31.609Z,47.0
2016-09-24T10:37:03.815Z,47.0
2016-09-24T10:42:04.214Z,47.0
2016-09-24T10:47:37.374Z,47.0
2016-09-24T10:52:03.469Z,47.3
2016-09-24T10:57:04.102Z,47.4
2016-09-24T11:02:36.466Z,47.5
2016-09-24T11:07:04.044Z,46.9
2016-09-24T11:12:04.164Z,47.8
2016-09-24T11:17:42.203Z,47.6
2016-09-24T11:22:04.288Z,47.6
2016-09-24T11:27:03.641Z,47.7
2016-09-24T11:32:37.252Z,47.7
2016-09-24T11:37:03.640Z,47.6
2016-09-24T11:42:04.119Z,48.0
2016-09-24T11:47:21.078Z,47.9
2016-09-24T11:52:03.762Z,48.3
2016-09-24T11:57:03.985Z,48.0
2016-09-24T12:02:37.060Z,47.9
2016-09-24T12:07:03.641Z,48.4
2016-09-24T12:12:03.603Z,48.2
2016-09-24T12:17:37.601Z,48.1
2016-09-24T12:22:03.797Z,47.9
2016-09-24T12:27:03.925Z,47.9
2016-09-24T12:32:34.703Z,47.9
2016-09-24T12:37:03.722Z,48.1
2016-09-24T12:42:03.950Z,48.6
2016-09-24T12:47:36.594Z,48.2
2016-09-24T12:52:04.011Z,48.2
2016-09-24T12:57:04.080Z,48.5
2016-09-24T13:02:37.184Z,48.2
2016-09-24T13:07:03.686Z,48.5
2016-09-24T13:12:03.555Z,49.0
2016-09-24T13:17:37.355Z,48.6
2016-09-24T13:22:04.311Z,49.0
2016-09-24T13:27:03.976Z,49.1
2016-09-24T13:32:36.636Z,49.2
2016-09-24T13:37:03.816Z,49.1
2016-09-24T13:42:03.734Z,49.3
2016-09-24T13:47:31.442Z,49.3
2016-09-24T13:52:03.872Z,49.1
2016-09-24T13:57:03.535Z,49.1
2016-09-24T20:02:03.673Z,46.2
2016-09-24T20:07:03.626Z,46.2
2016-09-24T20:12:03.593Z,46.2
2016-09-24T20:17:04.248Z,46.2
2016-09-24T20:22:03.719Z,46.1
2016-09-24T20:27:03.827Z,46.1
2016-09-24T20:32:03.576Z,46.2
2016-09-24T20:37:04.073Z,46.0
2016-09-24T20:42:03.778Z,45.8
2016-09-24T20:47:03.714Z,45.9
2016-09-24T20:52:04.258Z,45.8
2016-09-24T20:57:03.565Z,45.9
2016-09-24T21:02:03.772Z,45.8
2016-09-24T21:07:03.937Z,46.0
2016-09-24T21:12:03.732Z,45.8
2016-09-24T21:17:04.355Z,45.8
2016-09-24T21:22:03.926Z,45.8
2016-09-24T21:27:03.882Z,45.7
2016-09-24T21:32:04.389Z,45.9
2016-09-24T21:37:03.846Z,45.9
2016-09-24T21:42:03.446Z,45.9
2016-09-24T21:47:03.978Z,45.8
2016-09-24T21:52:03.425Z,45.7
2016-09-24T21:57:03.444Z,45.7
2016-09-24T22:02:04.027Z,45.7
2016-09-24T22:07:04.371Z,45.6
2016-09-24T22:12:03.927Z,45.9
2016-09-24T22:22:04.093Z,45.6
2016-09-24T22:27:04.207Z,45.6
2016-09-24T22:32:03.598Z,45.7
2016-09-24T22:37:04.208Z,45.7
2016-09-24T22:42:03.738Z,45.6
2016-09-24T22:47:04.286Z,45.5
2016-09-24T22:52:03.959Z,45.8
2016-09-24T22:57:04.262Z,45.7
2016-09-24T23:02:03.429Z,45.5
2016-09-24T23:07:04.326Z,45.6
2016-09-24T23:12:03.682Z,45.4
2016-09-24T23:17:04.075Z,45.3
2016-09-24T23:22:09.483Z,45.4
2016-09-24T23:27:04.180Z,45.5
2016-09-24T23:32:10.784Z,45.3
2016-09-24T23:37:03.582Z,45.5
2016-09-24T23:42:03.921Z,45.5
2016-09-24T23:47:04.471Z,45.4
2016-09-24T23:52:04.175Z,45.4
2016-09-24T23:57:03.795Z,45.6
